createdAt,value
2019-02-09T00:01:53.178Z,68.90
2019-02-09T00:04:27.846Z,68.00
2019-02-09T00:07:02.679Z,68.90
2019-02-09T00:09:37.748Z,68.10
2019-02-09T00:12:12.374Z,68.10
2019-02-09T00:14:47.115Z,68.20
2019-02-09T00:17:22.320Z,68.30
2019-02-09T00:19:58.335Z,68.40
2019-02-09T00:22:32.614Z,68.50
2019-02-09T00:25:07.017Z,68.70
2019-02-09T00:27:42.866Z,68.70
2019-02-09T00:30:17.574Z,68.80
2019-02-09T00:32:52.100Z,68.90
2019-02-09T00:35:46.109Z,69.20
2019-02-09T00:38:20.564Z,69.20
2019-02-09T00:40:55.503Z,69.30
2019-02-09T00:43:29.960Z,69.30
2019-02-09T00:46:04.758Z,69.60
2019-02-09T00:48:39.278Z,69.70
2019-02-09T00:51:13.910Z,69.80
2019-02-09T00:53:48.506Z,69.80
2019-02-09T00:56:23.123Z,69.90
2019-02-09T00:58:57.206Z,70.00
2019-02-09T01:01:32.271Z,69.90
2019-02-09T01:04:09.634Z,70.10
2019-02-09T01:06:44.228Z,70.10
2019-02-09T01:09:19.526Z,70.00
2019-02-09T01:11:55.170Z,70.00
2019-02-09T01:14:29.915Z,70.00
2019-02-09T01:17:23.417Z,70.00
2019-02-09T01:19:58.238Z,70.00
2019-02-09T01:22:33.214Z,69.90
2019-02-09T01:25:08.111Z,69.90
2019-02-09T01:27:43.020Z,70.00
2019-02-09T01:30:19.951Z,69.80
2019-02-09T01:32:54.905Z,70.00
2019-02-09T01:35:29.725Z,69.80
2019-02-09T01:38:04.084Z,69.80
2019-02-09T01:40:39.224Z,69.70
2019-02-09T01:43:13.927Z,69.70
2019-02-09T01:45:48.894Z,69.60
2019-02-09T01:48:23.401Z,69.60
2019-02-09T01:50:58.123Z,69.40
2019-02-09T01:53:32.864Z,69.50
2019-02-09T01:56:07.484Z,69.40
2019-02-09T01:58:42.805Z,69.30
2019-02-09T02:01:17.528Z,69.30
2019-02-09T02:03:52.442Z,69.60
2019-02-09T02:06:27.396Z,69.20
2019-02-09T02:09:02.004Z,69.20
2019-02-09T02:11:36.667Z,69.10
2019-02-09T02:14:11.352Z,69.10
2019-02-09T02:16:45.897Z,69.10
2019-02-09T02:19:20.709Z,68.90
2019-02-09T02:21:55.147Z,69.00
2019-02-09T02:24:29.758Z,68.90
2019-02-09T02:27:04.550Z,69.80
2019-02-09T02:29:39.054Z,69.00
2019-02-09T02:32:31.870Z,68.90
2019-02-09T02:35:06.503Z,68.80
2019-02-09T02:37:41.022Z,69.00
2019-02-09T02:40:22.342Z,68.90
2019-02-09T02:42:57.641Z,68.90
2019-02-09T02:45:32.821Z,68.90
2019-02-09T02:48:07.453Z,68.90
2019-02-09T02:50:42.314Z,68.90
2019-02-09T02:53:17.113Z,69.00
2019-02-09T02:55:51.693Z,69.20
2019-02-09T02:58:27.072Z,68.90
2019-02-09T03:01:01.398Z,68.90
2019-02-09T03:03:36.018Z,68.80
2019-02-09T03:06:10.677Z,68.90
2019-02-09T03:08:45.659Z,68.70
2019-02-09T03:11:21.915Z,68.50
2019-02-09T03:13:56.676Z,68.50
2019-02-09T03:16:31.715Z,68.40
2019-02-09T03:19:07.761Z,68.30
2019-02-09T03:21:42.855Z,68.30
2019-02-09T03:24:17.559Z,68.20
2019-02-09T03:26:52.302Z,68.20
2019-02-09T03:29:26.682Z,68.20
2019-02-09T03:32:01.540Z,68.00
2019-02-09T03:34:36.681Z,68.00
2019-02-09T03:37:11.390Z,68.00
2019-02-09T03:39:45.829Z,68.60
2019-02-09T03:42:21.934Z,67.70
2019-02-09T03:44:58.075Z,67.50
2019-02-09T03:47:32.861Z,67.40
2019-02-09T03:50:08.232Z,67.30
2019-02-09T03:52:43.542Z,67.20
2019-02-09T03:55:18.002Z,67.00
2019-02-09T03:57:52.441Z,67.00
2019-02-09T04:00:29.221Z,66.80
2019-02-09T04:03:23.011Z,66.70
2019-02-09T04:05:58.568Z,66.50
2019-02-09T04:08:33.183Z,66.50
2019-02-09T04:11:07.710Z,66.40
2019-02-09T04:13:42.258Z,66.30
2019-02-09T04:16:16.698Z,66.20
2019-02-09T04:18:51.603Z,66.10
2019-02-09T04:21:26.478Z,66.00
2019-02-09T04:24:01.384Z,66.00
2019-02-09T04:26:36.658Z,65.80
2019-02-09T04:29:11.348Z,65.80
2019-02-09T04:31:46.354Z,65.70
2019-02-09T04:34:21.090Z,65.60
2019-02-09T04:39:39.287Z,65.50
2019-02-09T04:42:13.679Z,65.20
2019-02-09T04:44:48.696Z,65.10
2019-02-09T04:47:23.521Z,65.10
2019-02-09T04:49:58.331Z,65.00
2019-02-09T04:52:59.175Z,64.90
2019-02-09T04:55:33.848Z,64.70
2019-02-09T04:58:08.467Z,64.80
2019-02-09T05:00:43.658Z,64.60
2019-02-09T05:03:18.466Z,64.40
2019-02-09T05:05:53.100Z,64.40
2019-02-09T05:08:27.773Z,64.30
2019-02-09T05:11:02.435Z,64.20
2019-02-09T05:13:37.397Z,64.20
2019-02-09T05:16:11.537Z,63.90
2019-02-09T05:18:46.745Z,63.90
2019-02-09T05:21:21.251Z,63.60
2019-02-09T05:23:55.698Z,63.50
2019-02-09T05:26:30.801Z,63.90
2019-02-09T05:29:05.499Z,63.30
2019-02-09T05:31:40.142Z,62.90
2019-02-09T05:34:15.072Z,62.70
2019-02-09T05:36:49.688Z,62.60
2019-02-09T05:39:24.440Z,62.50
2019-02-09T05:44:53.160Z,62.20
2019-02-09T05:47:29.519Z,62.10
2019-02-09T05:50:04.479Z,62.00
2019-02-09T05:52:40.397Z,62.60
2019-02-09T05:55:16.214Z,62.00
2019-02-09T05:57:50.914Z,61.90
2019-02-09T06:00:39.061Z,61.90
2019-02-09T06:03:13.532Z,61.80
2019-02-09T06:05:48.293Z,61.80
2019-02-09T06:08:41.912Z,61.60
2019-02-09T06:11:19.089Z,61.60
2019-02-09T06:13:53.059Z,61.50
2019-02-09T06:16:30.768Z,61.30
2019-02-09T06:19:05.565Z,61.40
2019-02-09T06:21:40.892Z,61.40
2019-02-09T06:24:15.458Z,61.30
2019-02-09T06:26:50.343Z,61.30
2019-02-09T06:29:25.063Z,61.20
2019-02-09T06:31:59.825Z,61.00
2019-02-09T06:34:53.278Z,60.90
2019-02-09T06:37:27.906Z,60.80
2019-02-09T06:40:21.290Z,60.80
2019-02-09T06:42:55.672Z,60.70
2019-02-09T06:45:31.147Z,60.60
2019-02-09T06:48:39.141Z,60.60
2019-02-09T06:51:15.122Z,60.50
2019-02-09T06:53:49.521Z,60.40
2019-02-09T06:56:43.703Z,60.40
2019-02-09T06:59:18.502Z,60.50
2019-02-09T07:01:53.034Z,60.40
2019-02-09T07:04:27.412Z,60.30
2019-02-09T07:07:02.201Z,60.20
2019-02-09T07:09:36.755Z,60.30
2019-02-09T07:12:11.387Z,60.20
2019-02-09T07:15:04.932Z,60.20
2019-02-09T07:17:39.576Z,60.20
2019-02-09T07:20:14.535Z,60.00
2019-02-09T07:22:49.384Z,59.90
2019-02-09T07:25:43.068Z,59.80
2019-02-09T07:28:18.041Z,59.70
2019-02-09T07:30:52.071Z,59.50
2019-02-09T07:33:33.366Z,59.50
2019-02-09T07:36:07.831Z,59.40
2019-02-09T07:38:43.483Z,59.20
2019-02-09T07:41:18.177Z,59.30
2019-02-09T07:43:55.013Z,59.00
2019-02-09T07:46:29.687Z,59.00
2019-02-09T07:49:04.310Z,58.90
2019-02-09T07:51:39.420Z,58.80
2019-02-09T07:54:14.354Z,58.90
2019-02-09T07:56:49.290Z,58.80
2019-02-09T07:59:24.009Z,58.80
2019-02-09T08:02:04.422Z,58.80
2019-02-09T08:04:34.865Z,58.70
2019-02-09T08:07:09.371Z,58.90
2019-02-09T08:09:44.804Z,58.70
2019-02-09T08:12:19.306Z,58.80
2019-02-09T08:14:54.113Z,58.70
2019-02-09T08:17:29.024Z,58.70
2019-02-09T08:20:03.654Z,58.70
2019-02-09T08:22:38.665Z,58.70
2019-02-09T08:25:16.074Z,58.60
2019-02-09T08:27:50.774Z,58.50
2019-02-09T08:30:28.097Z,58.50
2019-02-09T08:33:02.611Z,58.30
2019-02-09T08:35:37.508Z,58.30
2019-02-09T08:38:13.569Z,58.20
2019-02-09T08:40:48.006Z,58.60
2019-02-09T08:43:23.029Z,58.10
2019-02-09T08:45:57.924Z,58.10
2019-02-09T08:48:32.686Z,58.00
2019-02-09T08:51:10.959Z,58.00
2019-02-09T08:53:47.098Z,57.90
2019-02-09T08:56:21.681Z,57.90
2019-02-09T08:58:56.748Z,57.90
2019-02-09T09:01:31.699Z,57.90
2019-02-09T09:04:24.176Z,57.80
2019-02-09T09:06:59.162Z,57.70
2019-02-09T09:09:33.985Z,57.80
2019-02-09T09:12:08.203Z,57.80
2019-02-09T09:14:42.772Z,57.80
2019-02-09T09:17:17.462Z,57.70
2019-02-09T09:19:52.181Z,57.70
2019-02-09T09:22:27.401Z,57.60
2019-02-09T09:25:02.337Z,57.60
2019-02-09T09:27:37.341Z,57.60
2019-02-09T09:30:13.190Z,57.50
2019-02-09T09:32:48.629Z,57.70
2019-02-09T09:35:23.577Z,57.60
2019-02-09T09:37:58.275Z,57.50
2019-02-09T09:40:38.191Z,56.70
2019-02-09T09:43:13.071Z,57.30
2019-02-09T09:45:48.089Z,57.30
2019-02-09T09:48:23.095Z,57.30
2019-02-09T09:50:57.965Z,57.10
2019-02-09T09:53:32.538Z,57.10
2019-02-09T09:56:07.200Z,57.20
2019-02-09T09:58:42.883Z,57.00
2019-02-09T10:01:17.590Z,57.10
2019-02-09T10:03:52.182Z,57.00
2019-02-09T10:06:26.850Z,57.00
2019-02-09T10:09:01.539Z,56.90
2019-02-09T10:11:35.778Z,56.90
2019-02-09T10:14:10.994Z,56.90
2019-02-09T10:16:45.490Z,56.80
2019-02-09T10:19:38.462Z,56.80
2019-02-09T10:22:13.071Z,56.60
2019-02-09T10:24:48.226Z,56.80
2019-02-09T10:27:22.612Z,56.70
2019-02-09T10:29:57.327Z,56.70
2019-02-09T10:32:32.000Z,56.70
2019-02-09T10:35:06.897Z,56.80
2019-02-09T10:37:41.607Z,56.80
2019-02-09T10:40:21.440Z,56.80
2019-02-09T10:42:57.084Z,56.90
2019-02-09T10:45:32.821Z,56.70
2019-02-09T10:48:07.644Z,56.80
2019-02-09T10:50:49.740Z,56.70
2019-02-09T10:53:24.475Z,56.70
2019-02-09T10:56:00.418Z,56.70
2019-02-09T10:58:35.041Z,56.70
2019-02-09T11:01:20.275Z,56.60
2019-02-09T11:03:54.949Z,56.80
2019-02-09T11:06:29.922Z,56.80
2019-02-09T11:09:05.767Z,56.80
2019-02-09T11:11:40.493Z,56.80
2019-02-09T11:14:34.414Z,56.90
2019-02-09T11:17:08.924Z,56.00
2019-02-09T11:19:43.496Z,54.40
2019-02-09T11:22:18.689Z,53.00
2019-02-09T11:24:53.432Z,51.80
2019-02-09T11:27:28.462Z,50.70
2019-02-09T11:30:03.037Z,49.90
2019-02-09T11:32:37.800Z,49.10
2019-02-09T11:35:12.443Z,48.60
2019-02-09T11:37:47.421Z,48.10
2019-02-09T11:40:23.276Z,47.40
2019-02-09T11:42:59.090Z,46.70
2019-02-09T11:45:34.250Z,46.20
2019-02-09T11:48:09.124Z,45.90
2019-02-09T11:50:43.647Z,45.40
2019-02-09T11:53:37.778Z,45.10
2019-02-09T11:56:12.616Z,44.80
2019-02-09T11:58:47.401Z,45.60
2019-02-09T12:01:22.082Z,44.90
2019-02-09T12:03:56.657Z,44.90
2019-02-09T12:06:31.044Z,44.80
2019-02-09T12:09:06.262Z,44.80
2019-02-09T12:11:41.072Z,44.80
2019-02-09T12:14:15.242Z,44.70
2019-02-09T12:16:50.239Z,44.70
2019-02-09T12:19:25.150Z,45.30
2019-02-09T12:21:59.747Z,44.40
2019-02-09T12:24:35.005Z,44.50
2019-02-09T12:27:09.521Z,44.40
2019-02-09T12:29:44.581Z,44.30
2019-02-09T12:32:19.517Z,44.30
2019-02-09T12:34:54.132Z,44.30
2019-02-09T12:37:29.691Z,44.30
2019-02-09T12:40:04.630Z,44.30
2019-02-09T12:42:39.736Z,44.20
2019-02-09T12:45:15.191Z,44.20
2019-02-09T12:47:50.164Z,44.20
2019-02-09T12:50:25.228Z,44.80
2019-02-09T12:53:00.095Z,46.60
2019-02-09T12:55:35.792Z,46.70
2019-02-09T12:58:10.868Z,46.50
2019-02-09T13:00:45.284Z,46.10
2019-02-09T13:03:22.309Z,45.80
2019-02-09T13:05:57.118Z,46.40
2019-02-09T13:08:32.656Z,48.00
2019-02-09T13:11:07.422Z,48.00
2019-02-09T13:13:42.328Z,47.70
2019-02-09T13:16:16.860Z,47.10
2019-02-09T13:18:51.150Z,48.30
2019-02-09T13:21:45.777Z,49.20
2019-02-09T13:24:20.748Z,48.70
2019-02-09T13:26:55.463Z,48.00
2019-02-09T13:29:31.392Z,47.30
2019-02-09T13:32:06.322Z,47.30
2019-02-09T13:34:41.112Z,48.70
2019-02-09T13:37:15.947Z,49.30
2019-02-09T13:39:50.787Z,48.90
2019-02-09T13:42:24.958Z,48.20
2019-02-09T13:44:59.744Z,48.00
2019-02-09T13:47:34.398Z,48.20
2019-02-09T13:50:09.400Z,48.50
2019-02-09T13:52:43.981Z,48.70
2019-02-09T13:55:18.636Z,49.00
2019-02-09T13:57:53.075Z,49.40
2019-02-09T14:00:28.172Z,50.00
2019-02-09T14:03:02.882Z,50.30
2019-02-09T14:05:37.675Z,50.80
2019-02-09T14:08:12.898Z,51.40
2019-02-09T14:10:47.437Z,51.80
2019-02-09T14:13:22.390Z,52.20
2019-02-09T14:15:57.551Z,52.70
2019-02-09T14:18:33.060Z,53.00
2019-02-09T14:21:07.778Z,53.10
2019-02-09T14:23:42.751Z,53.30
2019-02-09T14:26:18.510Z,53.50
2019-02-09T14:28:53.648Z,53.90
2019-02-09T14:31:28.243Z,54.20
2019-02-09T14:34:02.972Z,54.40
2019-02-09T14:36:37.757Z,54.60
2019-02-09T14:39:15.604Z,54.90
2019-02-09T14:41:50.114Z,55.10
2019-02-09T14:44:24.873Z,55.20
2019-02-09T14:46:59.009Z,55.50
2019-02-09T14:49:33.517Z,55.90
2019-02-09T14:52:27.275Z,55.90
2019-02-09T14:55:02.286Z,56.00
2019-02-09T14:57:55.890Z,56.20
2019-02-09T15:00:36.615Z,56.40
2019-02-09T15:03:11.833Z,56.40
2019-02-09T15:05:46.063Z,56.60
2019-02-09T15:08:21.074Z,56.60
2019-02-09T15:10:55.848Z,56.80
2019-02-09T15:13:30.674Z,56.90
2019-02-09T15:16:31.341Z,57.10
2019-02-09T15:19:06.184Z,57.20
2019-02-09T15:21:41.036Z,57.30
2019-02-09T15:24:15.890Z,57.50
2019-02-09T15:26:50.725Z,57.60
2019-02-09T15:29:26.072Z,58.20
2019-02-09T15:32:19.819Z,57.90
2019-02-09T15:34:54.285Z,58.00
2019-02-09T15:37:29.974Z,58.10
2019-02-09T15:40:05.474Z,58.20
2019-02-09T15:42:39.746Z,58.40
2019-02-09T15:45:15.904Z,58.60
2019-02-09T15:47:50.461Z,58.60
2019-02-09T15:50:25.073Z,58.70
2019-02-09T15:52:59.889Z,58.80
2019-02-09T15:55:34.768Z,59.00
2019-02-09T15:58:09.688Z,59.10
2019-02-09T16:00:44.339Z,59.20
2019-02-09T16:03:19.231Z,59.30
2019-02-09T16:05:54.012Z,59.30
2019-02-09T16:08:28.840Z,59.40
2019-02-09T16:11:03.719Z,59.50
2019-02-09T16:13:45.325Z,59.60
2019-02-09T16:16:14.190Z,59.70
2019-02-09T16:18:50.746Z,59.80
2019-02-09T16:21:25.282Z,59.90
2019-02-09T16:24:00.343Z,60.00
2019-02-09T16:27:03.819Z,60.10
2019-02-09T16:29:38.703Z,60.10
2019-02-09T16:32:13.283Z,60.10
2019-02-09T16:34:48.095Z,60.20
2019-02-09T16:37:22.449Z,60.30
2019-02-09T16:39:57.891Z,60.40
2019-02-09T16:42:32.503Z,60.60
2019-02-09T16:45:07.041Z,60.60
2019-02-09T16:47:41.726Z,60.60
2019-02-09T16:50:16.833Z,60.70
2019-02-09T16:52:52.232Z,60.80
2019-02-09T16:55:27.533Z,60.90
2019-02-09T16:58:02.203Z,60.90
2019-02-09T17:00:40.958Z,61.00
2019-02-09T17:03:33.431Z,61.10
2019-02-09T17:06:08.774Z,61.10
2019-02-09T17:08:43.315Z,61.20
2019-02-09T17:11:18.014Z,61.20
2019-02-09T17:13:52.880Z,61.40
2019-02-09T17:16:27.897Z,61.50
2019-02-09T17:19:02.929Z,61.60
2019-02-09T17:21:37.701Z,61.70
2019-02-09T17:24:12.924Z,61.80
2019-02-09T17:26:47.822Z,61.80
2019-02-09T17:29:22.503Z,61.80
2019-02-09T17:31:57.490Z,61.90
2019-02-09T17:34:31.909Z,62.10
2019-02-09T17:37:06.985Z,62.10
2019-02-09T17:39:41.516Z,62.10
2019-02-09T17:42:16.168Z,62.20
2019-02-09T17:44:51.129Z,62.20
2019-02-09T17:47:26.650Z,62.40
2019-02-09T17:50:12.339Z,62.40
2019-02-09T17:52:47.250Z,62.50
2019-02-09T17:55:22.404Z,62.40
2019-02-09T17:57:56.984Z,62.50
2019-02-09T18:00:42.354Z,62.60
2019-02-09T18:03:17.244Z,62.60
2019-02-09T18:05:52.172Z,62.70
2019-02-09T18:08:26.668Z,62.70
2019-02-09T18:11:01.478Z,62.80
2019-02-09T18:13:36.423Z,62.90
2019-02-09T18:16:11.283Z,62.90
2019-02-09T18:18:46.090Z,62.90
2019-02-09T18:21:21.590Z,63.00
2019-02-09T18:23:55.586Z,63.00
2019-02-09T18:26:30.202Z,63.10
2019-02-09T18:29:05.005Z,63.10
2019-02-09T18:31:40.157Z,63.10
2019-02-09T18:34:14.853Z,63.20
2019-02-09T18:36:49.599Z,63.20
2019-02-09T18:39:23.986Z,63.20
2019-02-09T18:42:01.092Z,63.20
2019-02-09T18:44:35.694Z,63.30
2019-02-09T18:47:10.942Z,63.40
2019-02-09T18:50:04.528Z,63.50
2019-02-09T18:52:39.117Z,63.50
2019-02-09T18:55:15.038Z,63.60
2019-02-09T18:57:49.763Z,63.50
2019-02-09T19:00:26.042Z,63.60
2019-02-09T19:03:01.993Z,63.70
2019-02-09T19:05:36.566Z,63.70
2019-02-09T19:08:30.650Z,63.80
2019-02-09T19:11:05.082Z,63.80
2019-02-09T19:13:39.971Z,63.90
2019-02-09T19:16:14.813Z,63.90
2019-02-09T19:18:49.541Z,64.00
2019-02-09T19:21:24.295Z,64.10
2019-02-09T19:23:58.799Z,64.10
2019-02-09T19:26:33.152Z,64.20
2019-02-09T19:29:07.974Z,64.30
2019-02-09T19:32:01.697Z,64.30
2019-02-09T19:34:35.905Z,64.40
2019-02-09T19:37:10.805Z,64.50
2019-02-09T19:39:46.274Z,64.40
2019-02-09T19:42:20.678Z,64.40
2019-02-09T19:45:05.501Z,65.00
2019-02-09T19:47:40.183Z,64.60
2019-02-09T19:50:15.757Z,64.60
2019-02-09T19:52:51.030Z,64.80
2019-02-09T19:55:26.892Z,64.00
2019-02-09T19:58:02.024Z,64.80
2019-02-09T20:00:38.435Z,64.80
2019-02-09T20:03:32.689Z,64.90
2019-02-09T20:06:08.350Z,65.00
2019-02-09T20:08:42.869Z,64.90
2019-02-09T20:11:17.703Z,65.00
2019-02-09T20:13:52.987Z,65.10
2019-02-09T20:16:27.556Z,65.10
2019-02-09T20:19:02.837Z,65.10
2019-02-09T20:21:37.703Z,65.30
2019-02-09T20:24:12.475Z,65.20
2019-02-09T20:26:47.073Z,65.30
2019-02-09T20:29:22.082Z,65.30
2019-02-09T20:31:56.484Z,65.50
2019-02-09T20:34:31.299Z,65.50
2019-02-09T20:37:06.409Z,65.50
2019-02-09T20:39:40.539Z,65.40
2019-02-09T20:42:15.177Z,65.50
2019-02-09T20:44:51.135Z,65.60
2019-02-09T20:47:26.392Z,65.60
2019-02-09T20:50:02.061Z,65.80
2019-02-09T20:52:36.832Z,65.60
2019-02-09T20:55:12.213Z,65.60
2019-02-09T20:57:46.605Z,65.70
2019-02-09T21:00:22.672Z,65.70
2019-02-09T21:02:57.926Z,65.70
2019-02-09T21:05:36.558Z,65.70
2019-02-09T21:08:08.726Z,65.70
2019-02-09T21:10:43.762Z,65.80
2019-02-09T21:13:18.823Z,65.80
2019-02-09T21:15:53.220Z,65.90
2019-02-09T21:18:27.752Z,65.90
2019-02-09T21:21:21.450Z,66.00
2019-02-09T21:23:56.500Z,66.10
2019-02-09T21:26:30.710Z,65.90
2019-02-09T21:29:05.294Z,66.70
2019-02-09T21:31:40.808Z,66.00
2019-02-09T21:34:15.253Z,66.10
2019-02-09T21:36:49.892Z,66.10
2019-02-09T21:39:24.980Z,66.10
2019-02-09T21:42:00.366Z,66.20
2019-02-09T21:44:35.215Z,66.30
2019-02-09T21:47:09.972Z,66.40
2019-02-09T21:49:44.721Z,66.40
2019-02-09T21:52:19.632Z,66.40
2019-02-09T21:54:54.062Z,66.50
2019-02-09T21:57:29.956Z,66.50
2019-02-09T22:00:04.383Z,66.50
2019-02-09T22:02:43.718Z,66.60
2019-02-09T22:05:18.562Z,66.70
2019-02-09T22:07:53.264Z,66.70
2019-02-09T22:10:33.070Z,66.70
2019-02-09T22:13:04.916Z,66.70
2019-02-09T22:15:40.112Z,66.80
2019-02-09T22:18:14.427Z,66.80
2019-02-09T22:20:52.777Z,66.70
2019-02-09T22:23:24.968Z,66.90
2019-02-09T22:25:59.889Z,67.00
2019-02-09T22:28:34.628Z,66.90
2019-02-09T22:31:09.412Z,67.00
2019-02-09T22:33:44.424Z,67.00
2019-02-09T22:36:19.139Z,67.10
2019-02-09T22:38:53.837Z,67.10
2019-02-09T22:41:29.347Z,67.10
2019-02-09T22:44:03.913Z,67.10
2019-02-09T22:46:38.529Z,67.20
2019-02-09T22:49:13.238Z,67.20
2019-02-09T22:51:47.650Z,67.30
2019-02-09T22:54:22.278Z,67.30
2019-02-09T22:56:56.859Z,67.30
2019-02-09T22:59:31.712Z,67.40
2019-02-09T23:02:07.298Z,67.30
2019-02-09T23:05:27.118Z,67.40
2019-02-09T23:08:01.816Z,67.50
2019-02-09T23:10:36.505Z,67.40
2019-02-09T23:13:11.721Z,67.40
2019-02-09T23:15:46.173Z,67.50
2019-02-09T23:18:20.867Z,67.60
2019-02-09T23:20:55.922Z,67.60
2019-02-09T23:23:30.565Z,67.70
2019-02-09T23:26:05.581Z,67.70
2019-02-09T23:28:40.314Z,67.70
2019-02-09T23:31:15.024Z,67.80
2019-02-09T23:34:08.416Z,67.80
2019-02-09T23:36:43.083Z,67.80
2019-02-09T23:39:17.879Z,67.80
2019-02-09T23:41:52.409Z,67.80
2019-02-09T23:44:34.209Z,67.80
2019-02-09T23:47:08.688Z,67.80
2019-02-09T23:49:43.660Z,67.90
2019-02-09T23:52:18.173Z,67.90
2019-02-09T23:54:52.976Z,68.40
2019-02-09T23:57:27.448Z,68.00
